Søk
Bilder fra klubbens virksomhet
Tooltip
Soloflygninger
Tooltip
Espen Wiik har fløyet solo
Tooltip
Rashad Habib har fløyet solo
Tooltip
David Froholt har fløyet solo
Tooltip
Leif Olsen er pilot
  • Tilfeldig bilde
     
    Opplastet 22-05-2008
    Opplastet 12-05-2008
    Opplastet 21-05-2008
     
  • Siste bilde
     
    Opplastet 27-07-2018
    Opplastet 05-06-2018
    Opplastet 31-10-2017
     
«StartForrige1234NesteSiste»
Side 1 av 4
 
 
METAR
2019/10/20 22:50 ENCN 202250Z AUTO 06005KT 0100 R03/0550N R21/1300D UP VV000 02/02 Q1017
TAF
2019/10/20 20:58 TAF AMD ENCN 202052Z 2020/2022 03005KT 0300 FG VV001 PROB40 2020/2022 1800 BCFG SCT001
LN-KFK
Operativ VFR-natt
VFR dag
07:35 - 18:48
Brannvakt
Inaktiv
Banner
Banner
Banner
Banner
Banner